Time;durP1;ratioP1;P1;durP2;ratioP2;P2;SDS_P1;SDS_P2;PMS_P1;PMS_P2;Temp;Humidity;BMP_temperature;BMP_pressure;BME280_temperature;BME280_humidity;BME280_pressure;Samples;Min_cycle;Max_cycle;Signal;HPM_P1;HPM_P2
2022/08/27 00:01:26;;;;;;;6.72;5.18;;;;;;;;;;10135678;28;20048;-58
2022/08/27 00:06:19;;;;;;;12.20;5.65;;;;;;;;;;10132838;28;20080;-57
2022/08/27 00:11:13;;;;;;;11.10;6.18;;;;;;;;;;10141493;28;20487;-55
2022/08/27 00:16:07;;;;;;;7.10;6.50;;;;;;;;;;10129485;28;20127;-58
2022/08/27 00:21:00;;;;;;;9.77;6.13;;;;;;;;;;10132187;28;20053;-58
2022/08/27 00:25:53;;;;;;;6.65;5.28;;;;;;;;;;10135963;28;20441;-57
2022/08/27 00:30:47;;;;;;;6.65;6.00;;;;;;;;;;10138463;28;20044;-57
2022/08/27 00:35:41;;;;;;;6.60;5.80;;;;;;;;;;10139511;28;20103;-57
2022/08/27 00:40:35;;;;;;;6.35;5.80;;;;;;;;;;10134790;28;20132;-57
2022/08/27 00:45:31;;;;;;;8.38;6.00;;;;;;;;;;10136874;28;20099;-58
2022/08/27 00:50:48;;;;;;;13.95;5.60;;;;;;;;;;10141964;28;20454;-58
2022/08/27 00:55:49;;;;;;;5.60;5.10;;;;;;;;;;10131233;28;20049;-57
2022/08/27 01:00:44;;;;;;;6.53;4.95;;;;;;;;;;10141387;28;20052;-57
2022/08/27 01:05:39;;;;;;;6.53;4.57;;;;;;;;;;10138254;28;20105;-57
2022/08/27 01:10:33;;;;;;;8.25;5.20;;;;;;;;;;10132957;28;20051;-58
2022/08/27 01:15:29;;;;;;;6.15;4.95;;;;;;;;;;10154433;28;20055;-57
2022/08/27 01:20:29;;;;;;;7.85;5.57;;;;;;;;;;10137987;28;20058;-58
2022/08/27 01:25:25;;;;;;;10.00;6.90;;;;;;;;;;10135665;28;20049;-56
2022/08/27 01:30:20;;;;;;;7.20;5.05;;;;;;;;;;10138287;28;20071;-57
2022/08/27 01:35:16;;;;;;;7.05;4.85;;;;;;;;;;10138963;28;20069;-57
2022/08/27 01:40:10;;;;;;;6.20;4.65;;;;;;;;;;10133128;28;20045;-57
2022/08/27 01:45:12;;;;;;;7.22;5.63;;;;;;;;;;10124804;28;20040;-58
2022/08/27 01:50:11;;;;;;;5.68;5.07;;;;;;;;;;10121382;28;20048;-57
2022/08/27 01:55:10;;;;;;;6.47;5.45;;;;;;;;;;10118230;28;20087;-58
2022/08/27 02:00:08;;;;;;;9.05;5.95;;;;;;;;;;10127704;28;20079;-58
2022/08/27 02:05:02;;;;;;;6.57;5.97;;;;;;;;;;10126244;28;20063;-57
2022/08/27 02:09:56;;;;;;;7.22;5.70;;;;;;;;;;10131547;28;20410;-57
2022/08/27 02:14:51;;;;;;;7.65;5.82;;;;;;;;;;10124627;28;20130;-58
2022/08/27 02:19:45;;;;;;;11.60;6.53;;;;;;;;;;10123341;28;20099;-57
2022/08/27 02:24:41;;;;;;;8.77;5.65;;;;;;;;;;10117505;28;20041;-58
2022/08/27 02:29:35;;;;;;;6.65;5.43;;;;;;;;;;10122163;28;20048;-56
2022/08/27 02:34:30;;;;;;;5.75;5.22;;;;;;;;;;10134287;28;20510;-58
2022/08/27 02:39:24;;;;;;;6.00;5.13;;;;;;;;;;10125862;28;20103;-57
2022/08/27 02:44:18;;;;;;;6.57;5.95;;;;;;;;;;10115325;28;20063;-56
2022/08/27 02:49:14;;;;;;;6.28;5.63;;;;;;;;;;10112578;28;20090;-57
2022/08/27 02:54:08;;;;;;;7.55;5.13;;;;;;;;;;10114409;28;20041;-57
2022/08/27 02:59:02;;;;;;;7.07;5.80;;;;;;;;;;10116920;28;20053;-58
2022/08/27 03:03:57;;;;;;;8.45;6.15;;;;;;;;;;10131205;28;20048;-58
2022/08/27 03:08:50;;;;;;;6.50;5.13;;;;;;;;;;10132875;28;20410;-58
2022/08/27 03:13:46;;;;;;;11.50;6.07;;;;;;;;;;10143182;28;20066;-58
2022/08/27 03:18:41;;;;;;;8.88;5.50;;;;;;;;;;10142656;28;20048;-58
2022/08/27 03:23:35;;;;;;;16.95;7.43;;;;;;;;;;10147028;28;20052;-58
2022/08/27 03:28:33;;;;;;;7.90;5.78;;;;;;;;;;10142039;28;20059;-58
2022/08/27 03:33:28;;;;;;;9.10;5.68;;;;;;;;;;10139075;28;20059;-58
2022/08/27 03:38:22;;;;;;;6.03;5.18;;;;;;;;;;10145950;28;20052;-58
2022/08/27 03:43:19;;;;;;;10.73;6.47;;;;;;;;;;10131220;28;20056;-58
2022/08/27 03:48:14;;;;;;;8.88;8.07;;;;;;;;;;10145040;28;20533;-57
2022/08/27 03:53:09;;;;;;;10.93;10.00;;;;;;;;;;10154853;28;20127;-58
2022/08/27 03:58:04;;;;;;;17.02;11.60;;;;;;;;;;10154814;28;20044;-58
2022/08/27 04:02:58;;;;;;;10.55;9.48;;;;;;;;;;10135528;28;20079;-57
2022/08/27 04:07:52;;;;;;;11.77;10.27;;;;;;;;;;10143865;28;20074;-58
2022/08/27 04:12:46;;;;;;;15.88;11.10;;;;;;;;;;10136927;28;20041;-58
2022/08/27 04:17:40;;;;;;;32.10;11.93;;;;;;;;;;10126692;28;20448;-58
2022/08/27 04:22:35;;;;;;;22.83;11.63;;;;;;;;;;10157358;28;20491;-58
2022/08/27 04:27:30;;;;;;;13.30;10.18;;;;;;;;;;10127455;28;20060;-58
2022/08/27 04:32:27;;;;;;;14.15;10.43;;;;;;;;;;10137417;28;20068;-58
2022/08/27 04:37:21;;;;;;;21.50;12.32;;;;;;;;;;10132109;28;20500;-57
2022/08/27 04:42:17;;;;;;;26.25;11.25;;;;;;;;;;10119395;28;20087;-58
2022/08/27 04:47:13;;;;;;;13.55;11.52;;;;;;;;;;10134925;28;20041;-58
2022/08/27 04:52:06;;;;;;;11.82;10.07;;;;;;;;;;10118764;28;20053;-58
2022/08/27 04:57:01;;;;;;;13.38;10.60;;;;;;;;;;10123112;28;20056;-58
2022/08/27 05:01:55;;;;;;;15.77;9.23;;;;;;;;;;10123304;28;20103;-58
2022/08/27 05:06:50;;;;;;;13.55;8.52;;;;;;;;;;10120464;28;20508;-58
2022/08/27 05:11:47;;;;;;;12.57;8.37;;;;;;;;;;10126181;28;20045;-58
2022/08/27 05:16:41;;;;;;;36.88;9.70;;;;;;;;;;10128395;28;20069;-57
2022/08/27 05:21:37;;;;;;;11.43;7.22;;;;;;;;;;10140279;28;20388;-58
2022/08/27 05:26:34;;;;;;;7.97;6.60;;;;;;;;;;10125046;28;20504;-58
2022/08/27 05:31:28;;;;;;;7.60;6.90;;;;;;;;;;10135894;28;20457;-59
2022/08/27 05:36:26;;;;;;;8.45;7.35;;;;;;;;;;10139684;28;20298;-61
2022/08/27 05:41:24;;;;;;;7.40;6.30;;;;;;;;;;10136648;28;20041;-59
2022/08/27 05:46:27;;;;;;;10.60;6.93;;;;;;;;;;10139899;28;20047;-59
2022/08/27 05:51:23;;;;;;;6.68;6.07;;;;;;;;;;10137593;28;20055;-60
2022/08/27 05:56:20;;;;;;;11.85;6.03;;;;;;;;;;10130465;28;20052;-60
2022/08/27 06:01:21;;;;;;;17.15;6.80;;;;;;;;;;10137243;28;20048;-60
2022/08/27 06:06:18;;;;;;;6.38;5.65;;;;;;;;;;10143940;28;20048;-58
2022/08/27 06:11:12;;;;;;;5.87;5.37;;;;;;;;;;10122573;28;20056;-59
2022/08/27 06:16:08;;;;;;;6.55;5.78;;;;;;;;;;10144379;28;20418;-59
2022/08/27 06:21:02;;;;;;;10.50;6.05;;;;;;;;;;10143263;28;20086;-59
2022/08/27 06:25:57;;;;;;;7.05;6.07;;;;;;;;;;10137858;28;20080;-58
2022/08/27 06:30:52;;;;;;;7.57;6.15;;;;;;;;;;10146428;28;20091;-59
2022/08/27 06:35:46;;;;;;;8.88;5.53;;;;;;;;;;10135658;28;20052;-59
2022/08/27 06:40:41;;;;;;;7.68;5.30;;;;;;;;;;10145422;28;20048;-59
2022/08/27 06:45:38;;;;;;;9.18;5.60;;;;;;;;;;10144329;28;20048;-59
2022/08/27 06:50:37;;;;;;;11.25;4.88;;;;;;;;;;10141194;28;20163;-58
2022/08/27 06:55:31;;;;;;;11.20;6.45;;;;;;;;;;10136235;28;20381;-59
2022/08/27 07:00:29;;;;;;;10.52;6.68;;;;;;;;;;10135316;28;20090;-58
2022/08/27 07:05:23;;;;;;;16.05;6.47;;;;;;;;;;10135232;28;20041;-59
2022/08/27 07:10:18;;;;;;;11.68;7.03;;;;;;;;;;10137631;28;20503;-60
2022/08/27 07:15:11;;;;;;;11.73;5.35;;;;;;;;;;10136911;28;20051;-61
2022/08/27 07:20:08;;;;;;;8.15;5.20;;;;;;;;;;10130067;28;20090;-61
2022/08/27 07:25:03;;;;;;;16.73;4.97;;;;;;;;;;10122340;28;20064;-58
2022/08/27 07:29:58;;;;;;;14.65;5.80;;;;;;;;;;10134021;28;20036;-74
2022/08/27 07:34:54;;;;;;;4.75;4.22;;;;;;;;;;10123161;28;20045;-71
2022/08/27 07:39:49;;;;;;;10.35;5.10;;;;;;;;;;10124660;28;20500;-70
2022/08/27 07:44:44;;;;;;;15.10;4.53;;;;;;;;;;10118758;28;20110;-69
2022/08/27 07:49:38;;;;;;;7.30;4.35;;;;;;;;;;10110646;28;20097;-69
2022/08/27 07:54:32;;;;;;;5.80;5.20;;;;;;;;;;10119588;28;20143;-68
2022/08/27 07:59:26;;;;;;;8.45;4.45;;;;;;;;;;10121712;28;20118;-69
2022/08/27 08:04:21;;;;;;;4.57;3.95;;;;;;;;;;10133821;28;20059;-70
2022/08/27 08:09:15;;;;;;;9.20;4.10;;;;;;;;;;10143501;28;20052;-68
2022/08/27 08:14:08;;;;;;;8.32;3.78;;;;;;;;;;10135681;28;20072;-69
2022/08/27 08:19:01;;;;;;;5.78;4.32;;;;;;;;;;10136742;28;20056;-68
2022/08/27 08:23:56;;;;;;;4.35;3.78;;;;;;;;;;10120749;28;20049;-68
2022/08/27 08:28:49;;;;;;;11.50;4.70;;;;;;;;;;10117975;28;20052;-68
2022/08/27 08:33:45;;;;;;;6.60;3.78;;;;;;;;;;10127649;28;20151;-68
2022/08/27 08:38:41;;;;;;;7.67;4.70;;;;;;;;;;10133815;28;20064;-68
2022/08/27 08:43:40;;;;;;;5.75;3.90;;;;;;;;;;10142786;28;20139;-68
2022/08/27 08:48:34;;;;;;;7.45;3.58;;;;;;;;;;10135742;28;20052;-68
2022/08/27 08:53:34;;;;;;;7.97;4.43;;;;;;;;;;10138582;28;20077;-68
2022/08/27 08:58:50;;;;;;;6.22;3.75;;;;;;;;;;10146966;28;20102;-68
2022/08/27 09:03:59;;;;;;;8.80;5.20;;;;;;;;;;10128830;28;20059;-68
2022/08/27 09:08:53;;;;;;;7.22;4.88;;;;;;;;;;10127696;28;20064;-68
2022/08/27 09:13:49;;;;;;;9.27;4.90;;;;;;;;;;10141595;28;20053;-68
2022/08/27 09:19:02;;;;;;;12.30;5.78;;;;;;;;;;10132823;28;20056;-67
2022/08/27 09:24:22;;;;;;;9.98;5.30;;;;;;;;;;10134573;28;20495;-67
2022/08/27 09:29:17;;;;;;;8.07;5.75;;;;;;;;;;10126504;28;20106;-69
2022/08/27 09:34:12;;;;;;;10.37;6.67;;;;;;;;;;10144118;28;20414;-66
2022/08/27 09:39:06;;;;;;;20.83;8.57;;;;;;;;;;10127359;28;20083;-67
2022/08/27 09:44:01;;;;;;;19.65;6.15;;;;;;;;;;10143402;28;20053;-69
2022/08/27 09:48:55;;;;;;;17.77;5.35;;;;;;;;;;10145038;28;20052;-67
2022/08/27 09:53:52;;;;;;;14.48;5.18;;;;;;;;;;10134385;28;20052;-65
2022/08/27 09:59:11;;;;;;;13.82;7.15;;;;;;;;;;10141417;28;20059;-65
2022/08/27 10:04:31;;;;;;;9.65;5.85;;;;;;;;;;10143786;28;20568;-66
2022/08/27 10:09:33;;;;;;;9.05;4.55;;;;;;;;;;10134299;28;20052;-65
2022/08/27 10:14:48;;;;;;;10.27;3.78;;;;;;;;;;10136555;28;20052;-64
2022/08/27 10:19:49;;;;;;;11.25;3.30;;;;;;;;;;10129937;28;20102;-65
2022/08/27 10:25:11;;;;;;;11.77;3.70;;;;;;;;;;10137727;28;20127;-66
2022/08/27 10:30:28;;;;;;;10.82;3.08;;;;;;;;;;10111106;28;20055;-66
2022/08/27 10:35:30;;;;;;;11.90;3.47;;;;;;;;;;10143229;28;20052;-67
2022/08/27 10:40:33;;;;;;;7.80;3.17;;;;;;;;;;10118401;28;20109;-67
2022/08/27 10:45:55;;;;;;;4.78;2.70;;;;;;;;;;10121241;28;20524;-68
2022/08/27 10:51:29;;;;;;;5.15;2.25;;;;;;;;;;10125582;28;20070;-67
2022/08/27 10:56:37;;;;;;;2.08;1.52;;;;;;;;;;10118530;28;20066;-68
2022/08/27 11:01:58;;;;;;;4.17;1.50;;;;;;;;;;10136183;28;20043;-68
2022/08/27 11:06:59;;;;;;;3.65;2.08;;;;;;;;;;10136534;28;20356;-70
2022/08/27 11:11:55;;;;;;;2.70;2.13;;;;;;;;;;10137728;28;20131;-68
2022/08/27 11:17:14;;;;;;;3.50;2.00;;;;;;;;;;10144096;28;20052;-70
2022/08/27 11:22:35;;;;;;;6.63;2.03;;;;;;;;;;10136024;28;20426;-67
2022/08/27 11:27:33;;;;;;;3.30;1.92;;;;;;;;;;10142905;28;20084;-68
2022/08/27 11:32:43;;;;;;;3.08;2.03;;;;;;;;;;10135200;28;20040;-68
2022/08/27 11:37:38;;;;;;;3.95;2.10;;;;;;;;;;10129116;28;20048;-68
2022/08/27 11:42:41;;;;;;;3.03;2.42;;;;;;;;;;10136889;28;20051;-68
2022/08/27 11:47:35;;;;;;;7.43;3.53;;;;;;;;;;10134447;28;20083;-69
2022/08/27 11:52:55;;;;;;;3.78;2.47;;;;;;;;;;10134941;28;20060;-69
2022/08/27 11:58:07;;;;;;;7.97;2.65;;;;;;;;;;10124639;28;20576;-66
2022/08/27 12:03:20;;;;;;;3.20;2.90;;;;;;;;;;10111353;28;20106;-67
2022/08/27 12:08:23;;;;;;;3.47;2.50;;;;;;;;;;10126485;28;20568;-69
2022/08/27 12:13:22;;;;;;;4.40;2.97;;;;;;;;;;10131683;28;20045;-69
2022/08/27 12:18:52;;;;;;;3.53;3.22;;;;;;;;;;10132954;28;20057;-71
2022/08/27 12:24:03;;;;;;;3.20;2.45;;;;;;;;;;10127397;28;20091;-68
2022/08/27 12:29:33;;;;;;;4.45;2.67;;;;;;;;;;10117999;28;20102;-65
2022/08/27 12:34:28;;;;;;;8.07;2.85;;;;;;;;;;10114058;28;20045;-65
2022/08/27 12:39:29;;;;;;;5.00;2.75;;;;;;;;;;10116786;28;20053;-68
2022/08/27 12:44:29;;;;;;;2.85;2.65;;;;;;;;;;10124769;28;20049;-66
2022/08/27 12:49:43;;;;;;;4.00;2.63;;;;;;;;;;10112060;28;20044;-67
2022/08/27 12:55:23;;;;;;;4.40;3.00;;;;;;;;;;10116006;28;20124;-68
2022/08/27 13:00:21;;;;;;;5.82;4.55;;;;;;;;;;10095843;28;20123;-66
2022/08/27 13:05:20;;;;;;;8.77;5.45;;;;;;;;;;10116008;28;20053;-66
2022/08/27 13:10:28;;;;;;;5.95;4.57;;;;;;;;;;10111753;28;20049;-64
2022/08/27 13:15:22;;;;;;;7.97;4.93;;;;;;;;;;10112168;28;20068;-65
2022/08/27 13:20:24;;;;;;;5.88;5.38;;;;;;;;;;10115463;28;20565;-64
2022/08/27 13:25:38;;;;;;;7.57;5.68;;;;;;;;;;10119740;28;20131;-65
2022/08/27 13:30:32;;;;;;;10.52;4.50;;;;;;;;;;10123236;28;20491;-66
2022/08/27 13:35:31;;;;;;;6.13;5.13;;;;;;;;;;10132668;28;20082;-68
2022/08/27 13:40:38;;;;;;;8.82;5.13;;;;;;;;;;10120985;28;20423;-68
2022/08/27 13:45:34;;;;;;;5.35;4.32;;;;;;;;;;10123725;28;20080;-68
2022/08/27 13:50:31;;;;;;;4.95;4.53;;;;;;;;;;10113834;28;20041;-67
2022/08/27 13:55:26;;;;;;;12.73;4.10;;;;;;;;;;10120175;28;20055;-66
2022/08/27 14:00:24;;;;;;;5.03;4.22;;;;;;;;;;10115530;28;20045;-65
2022/08/27 14:05:23;;;;;;;;;;;;;;;;;;10121004;28;20044;-74
2022/08/27 14:10:16;;;;;;;3.28;2.92;;;;;;;;;;10121510;28;19939;-67
2022/08/27 14:15:28;;;;;;;8.63;4.03;;;;;;;;;;10119845;28;20423;-69
2022/08/27 14:20:23;;;;;;;5.35;3.28;;;;;;;;;;10130736;28;20076;-68
2022/08/27 14:25:19;;;;;;;5.57;3.22;;;;;;;;;;10129014;28;20053;-68
2022/08/27 14:30:16;;;;;;;4.90;3.63;;;;;;;;;;10129282;28;20052;-66
2022/08/27 14:35:09;;;;;;;5.25;2.97;;;;;;;;;;10128949;28;20076;-69
2022/08/27 14:40:04;;;;;;;4.90;3.15;;;;;;;;;;10120628;28;20512;-69
2022/08/27 14:44:58;;;;;;;7.45;3.60;;;;;;;;;;10124130;28;20040;-69
2022/08/27 14:49:54;;;;;;;6.07;3.50;;;;;;;;;;10129361;28;20049;-72
2022/08/27 14:54:47;;;;;;;5.47;4.50;;;;;;;;;;10130588;28;20079;-68
2022/08/27 14:59:42;;;;;;;10.52;4.53;;;;;;;;;;10134096;28;20051;-71
2022/08/27 15:04:35;;;;;;;5.65;4.20;;;;;;;;;;10123520;28;20071;-69
2022/08/27 15:09:30;;;;;;;4.68;4.00;;;;;;;;;;10124468;28;20040;-67
2022/08/27 15:14:23;;;;;;;6.50;3.88;;;;;;;;;;10140737;28;20052;-70
2022/08/27 15:19:18;;;;;;;6.28;3.70;;;;;;;;;;10124610;28;20148;-69
2022/08/27 15:24:16;;;;;;;4.93;3.95;;;;;;;;;;10118732;28;20091;-72
2022/08/27 15:29:11;;;;;;;5.82;4.00;;;;;;;;;;10115910;28;20389;-73
2022/08/27 15:34:06;;;;;;;6.35;3.85;;;;;;;;;;10113610;28;20072;-71
2022/08/27 15:38:59;;;;;;;5.72;3.63;;;;;;;;;;10124317;28;20060;-71
2022/08/27 15:43:52;;;;;;;12.55;5.88;;;;;;;;;;10120427;28;20450;-73
2022/08/27 15:48:46;;;;;;;9.35;5.22;;;;;;;;;;10133652;28;20495;-73
2022/08/27 15:53:42;;;;;;;8.05;4.82;;;;;;;;;;10144310;28;20057;-73
2022/08/27 15:58:37;;;;;;;6.53;4.65;;;;;;;;;;10124150;28;20060;-73
2022/08/27 16:03:30;;;;;;;6.95;3.92;;;;;;;;;;10142325;28;20049;-73
2022/08/27 16:08:27;;;;;;;6.80;4.18;;;;;;;;;;10146442;28;20141;-73
2022/08/27 16:13:25;;;;;;;5.65;4.10;;;;;;;;;;10132747;28;20052;-71
2022/08/27 16:18:28;;;;;;;7.22;4.85;;;;;;;;;;10142645;28;20064;-72
2022/08/27 16:23:25;;;;;;;7.68;5.65;;;;;;;;;;10114929;28;20048;-71
2022/08/27 16:28:19;;;;;;;9.55;5.13;;;;;;;;;;10140626;28;20056;-74
2022/08/27 16:33:13;;;;;;;8.80;5.43;;;;;;;;;;10133328;28;20567;-71
2022/08/27 16:38:07;;;;;;;15.30;6.43;;;;;;;;;;10133866;28;20048;-73
2022/08/27 16:43:01;;;;;;;9.75;6.70;;;;;;;;;;10144916;28;20044;-71
2022/08/27 16:53:11;;;;;;;8.98;5.43;;;;;;;;;;10143890;28;20049;-74
2022/08/27 16:58:14;;;;;;;6.95;5.63;;;;;;;;;;10164026;28;20076;-72
2022/08/27 17:03:08;;;;;;;14.68;8.20;;;;;;;;;;10120802;28;20419;-72
2022/08/27 17:08:02;;;;;;;10.38;6.63;;;;;;;;;;10140412;28;20094;-73
2022/08/27 17:12:58;;;;;;;9.40;6.18;;;;;;;;;;10140933;28;20083;-72
2022/08/27 17:17:52;;;;;;;8.95;7.20;;;;;;;;;;10140741;28;20406;-73
2022/08/27 17:22:47;;;;;;;14.52;7.47;;;;;;;;;;10151039;28;20055;-72
2022/08/27 17:27:41;;;;;;;12.27;6.75;;;;;;;;;;10116617;28;20064;-73
2022/08/27 17:32:36;;;;;;;13.93;6.78;;;;;;;;;;10140446;28;20123;-73
2022/08/27 17:37:30;;;;;;;8.75;6.85;;;;;;;;;;10123775;28;20053;-74
2022/08/27 17:42:25;;;;;;;9.68;6.18;;;;;;;;;;10151414;28;20048;-73
2022/08/27 17:47:19;;;;;;;6.53;5.20;;;;;;;;;;10147226;28;20462;-73
2022/08/27 17:52:14;;;;;;;7.53;5.47;;;;;;;;;;10143045;28;20467;-73
2022/08/27 17:57:16;;;;;;;9.77;5.75;;;;;;;;;;10136018;28;20053;-72
2022/08/27 18:02:15;;;;;;;10.48;6.07;;;;;;;;;;10145301;28;20135;-73
2022/08/27 18:07:09;;;;;;;13.30;6.13;;;;;;;;;;10146744;28;20109;-73
2022/08/27 18:12:03;;;;;;;9.38;6.90;;;;;;;;;;10139998;28;20036;-70
2022/08/27 18:16:57;;;;;;;13.18;6.85;;;;;;;;;;10136864;28;20048;-69
2022/08/27 18:21:51;;;;;;;7.18;6.18;;;;;;;;;;10137909;28;20142;-71
2022/08/27 18:26:46;;;;;;;8.10;6.65;;;;;;;;;;10131308;28;20060;-72
2022/08/27 18:31:40;;;;;;;7.10;6.40;;;;;;;;;;10127353;28;20056;-72
2022/08/27 18:36:35;;;;;;;8.82;7.10;;;;;;;;;;10137038;28;20048;-72
2022/08/27 18:41:30;;;;;;;8.52;6.15;;;;;;;;;;10149776;28;20423;-72
2022/08/27 18:46:25;;;;;;;9.85;6.25;;;;;;;;;;10141970;28;20102;-72
2022/08/27 18:51:20;;;;;;;14.73;8.00;;;;;;;;;;10128741;28;20049;-73
2022/08/27 18:56:17;;;;;;;9.23;6.22;;;;;;;;;;10125199;28;20056;-71
2022/08/27 19:01:13;;;;;;;9.70;6.30;;;;;;;;;;10133126;28;20051;-72
2022/08/27 19:06:09;;;;;;;8.57;5.82;;;;;;;;;;10124241;28;20102;-72
2022/08/27 19:11:05;;;;;;;7.18;6.10;;;;;;;;;;10135271;28;20076;-72
2022/08/27 19:16:06;;;;;;;9.18;6.35;;;;;;;;;;10136664;28;20481;-72
2022/08/27 19:21:01;;;;;;;7.93;5.85;;;;;;;;;;10148503;28;20483;-73
2022/08/27 19:25:55;;;;;;;7.90;5.80;;;;;;;;;;10156579;28;20059;-72
2022/08/27 19:30:49;;;;;;;12.23;9.43;;;;;;;;;;10146834;28;20551;-72
2022/08/27 19:35:43;;;;;;;11.52;8.32;;;;;;;;;;10135246;28;20057;-72
2022/08/27 19:40:37;;;;;;;11.95;8.73;;;;;;;;;;10156247;28;20044;-72
2022/08/27 19:45:31;;;;;;;10.23;6.35;;;;;;;;;;10156491;28;20056;-72
2022/08/27 19:50:25;;;;;;;8.43;6.75;;;;;;;;;;10149288;28;20041;-72
2022/08/27 19:55:20;;;;;;;7.93;7.13;;;;;;;;;;10136572;28;20072;-72
2022/08/27 20:00:17;;;;;;;8.75;5.60;;;;;;;;;;10144371;28;20052;-73
2022/08/27 20:05:12;;;;;;;10.70;7.68;;;;;;;;;;10145002;28;20049;-73
2022/08/27 20:10:11;;;;;;;12.93;7.20;;;;;;;;;;10132988;28;20059;-74
2022/08/27 20:15:10;;;;;;;8.60;6.40;;;;;;;;;;10130374;28;20060;-72
2022/08/27 20:20:04;;;;;;;7.90;7.10;;;;;;;;;;10138788;28;20051;-73
2022/08/27 20:24:59;;;;;;;8.20;7.40;;;;;;;;;;10127685;28;20419;-73
2022/08/27 20:29:53;;;;;;;8.80;7.90;;;;;;;;;;10129157;28;20091;-72
2022/08/27 20:34:48;;;;;;;9.80;7.05;;;;;;;;;;10131377;28;20049;-73
2022/08/27 20:39:42;;;;;;;9.70;6.80;;;;;;;;;;10141550;28;20063;-73
2022/08/27 20:44:37;;;;;;;9.05;8.15;;;;;;;;;;10119780;28;20048;-73
2022/08/27 20:49:34;;;;;;;9.38;7.68;;;;;;;;;;10153947;28;20075;-73
2022/08/27 20:54:28;;;;;;;14.82;8.20;;;;;;;;;;10142367;28;20542;-72
2022/08/27 21:05:01;;;;;;;8.45;7.40;;;;;;;;;;10131536;28;20139;-73
2022/08/27 21:09:53;;;;;;;10.02;8.20;;;;;;;;;;10135608;28;20068;-72
2022/08/27 21:14:50;;;;;;;15.18;8.38;;;;;;;;;;10151349;28;20044;-72
2022/08/27 21:19:48;;;;;;;14.93;8.88;;;;;;;;;;10151905;28;20470;-72
2022/08/27 21:24:42;;;;;;;9.85;8.63;;;;;;;;;;10145464;28;20114;-71
2022/08/27 21:29:37;;;;;;;12.73;9.90;;;;;;;;;;10155318;28;20048;-72
2022/08/27 21:34:31;;;;;;;16.20;9.95;;;;;;;;;;10148291;28;20109;-72
2022/08/27 21:39:25;;;;;;;12.50;11.05;;;;;;;;;;10140710;28;20519;-73
2022/08/27 21:44:21;;;;;;;12.20;10.82;;;;;;;;;;10147449;28;20135;-73
2022/08/27 21:49:14;;;;;;;12.80;11.55;;;;;;;;;;10143421;28;20087;-73
2022/08/27 21:54:08;;;;;;;15.10;13.55;;;;;;;;;;10140871;28;20053;-74
2022/08/27 21:59:04;;;;;;;13.77;12.07;;;;;;;;;;10153170;28;20045;-73
2022/08/27 22:03:58;;;;;;;13.93;11.68;;;;;;;;;;10132542;28;20041;-74
2022/08/27 22:08:53;;;;;;;14.98;13.13;;;;;;;;;;10120238;28;20052;-72
2022/08/27 22:13:47;;;;;;;14.75;11.68;;;;;;;;;;10140571;28;20079;-73
2022/08/27 22:18:42;;;;;;;13.13;11.70;;;;;;;;;;10136752;28;20079;-73
2022/08/27 22:23:37;;;;;;;13.98;12.57;;;;;;;;;;10132570;28;20048;-70
2022/08/27 22:28:37;;;;;;;15.05;11.45;;;;;;;;;;10136597;28;20060;-72
2022/08/27 22:33:31;;;;;;;12.77;11.48;;;;;;;;;;10120562;28;20469;-71
2022/08/27 22:38:25;;;;;;;14.18;11.45;;;;;;;;;;10120808;28;20055;-71
2022/08/27 22:43:19;;;;;;;13.75;12.48;;;;;;;;;;10121504;28;20407;-70
2022/08/27 22:48:12;;;;;;;16.98;13.07;;;;;;;;;;10111087;28;20041;-72
2022/08/27 22:53:06;;;;;;;15.35;13.80;;;;;;;;;;10118884;28;20052;-73
2022/08/27 22:58:00;;;;;;;14.75;13.18;;;;;;;;;;10123568;28;20052;-75
2022/08/27 23:02:54;;;;;;;19.08;14.90;;;;;;;;;;10113982;28;20095;-73
2022/08/27 23:07:47;;;;;;;16.08;14.48;;;;;;;;;;10111484;28;20059;-73
2022/08/27 23:12:42;;;;;;;15.13;13.63;;;;;;;;;;10117926;28;20049;-73
2022/08/27 23:17:38;;;;;;;16.17;14.48;;;;;;;;;;10113685;28;20451;-73
2022/08/27 23:22:34;;;;;;;17.27;15.18;;;;;;;;;;10113764;28;20135;-72
2022/08/27 23:27:28;;;;;;;15.85;14.27;;;;;;;;;;10113804;28;20094;-73
2022/08/27 23:32:22;;;;;;;15.60;14.00;;;;;;;;;;10146576;28;20048;-73
2022/08/27 23:37:16;;;;;;;16.98;14.02;;;;;;;;;;10143432;28;20458;-72
2022/08/27 23:42:14;;;;;;;17.40;15.52;;;;;;;;;;10131473;28;20052;-72
2022/08/27 23:47:08;;;;;;;16.50;14.80;;;;;;;;;;10133830;28;20155;-72
2022/08/27 23:52:03;;;;;;;15.45;12.95;;;;;;;;;;10137456;28;20420;-72
2022/08/27 23:56:57;;;;;;;17.58;13.57;;;;;;;;;;10144789;28;20086;-72
